Cumberland Center, Maine
Current Conditions -  °F | °C
As of 1:51 PM on Friday 24 Oct 2014 (Local Time) from KPWM Reporting Station
Overcast Overcast  
Wind Chill: 53°   Ceiling: 2500
Heat Index: 53°   Visibility: 10mi
Dew Point: 47°   Wind: 12mph
Humidity: 80%   Direction: 360°N
Pressure: 29.66"   Gusts: NA
Location:  43.8°N, 70.25°W
Report Text: KPWM 241751Z 36010KT 10SM SCT018 BKN025 OVC070 12/08 A2966 RMK AO2 SLP044 60003 T01170083 10117 20094 58011
Loading
Personal Weather Stations






























Interactive Weather Map
Tropical Storm Tracking
New forecast layout! Learn more

10-Day Weather Forecast

Advertisements
Track Severe Weather on mobile